createdAt,value
2019-04-25T00:02:40.823Z,83.65
2019-04-25T00:07:48.685Z,84.02
2019-04-25T00:12:54.101Z,83.95
2019-04-25T00:18:02.343Z,82.94
2019-04-25T00:23:13.893Z,83.95
2019-04-25T00:28:19.196Z,83.66
2019-04-25T00:33:24.738Z,83.51
2019-04-25T00:38:31.775Z,83.98
2019-04-25T00:43:39.550Z,83.37
2019-04-25T00:48:45.755Z,83.45
2019-04-25T00:53:54.703Z,82.79
2019-04-25T00:59:22.101Z,83.51
2019-04-25T01:04:31.597Z,83.00
2019-04-25T01:09:37.641Z,83.66
2019-04-25T01:14:45.697Z,84.16
2019-04-25T01:19:54.728Z,83.95
2019-04-25T01:24:59.484Z,84.44
2019-04-25T01:30:06.130Z,82.77
2019-04-25T01:35:19.667Z,83.38
2019-04-25T01:40:35.735Z,84.59
2019-04-25T01:45:41.761Z,84.38
2019-04-25T01:50:48.255Z,84.19
2019-04-25T01:56:01.632Z,83.58
2019-04-25T02:01:02.653Z,83.28
2019-04-25T02:06:09.467Z,82.85
2019-04-25T02:11:34.044Z,83.09
2019-04-25T02:16:39.520Z,84.87
2019-04-25T02:21:45.256Z,84.39
2019-04-25T02:26:50.603Z,83.97
2019-04-25T02:31:59.140Z,84.79
2019-04-25T02:37:08.664Z,84.59
2019-04-25T02:42:10.639Z,84.29
2019-04-25T02:47:55.291Z,83.06
2019-04-25T02:53:11.614Z,82.58
2019-04-25T02:58:17.665Z,83.29
2019-04-25T03:03:24.546Z,84.13
2019-04-25T03:08:30.702Z,84.91
2019-04-25T03:13:36.496Z,84.69
2019-04-25T03:19:00.705Z,83.07
2019-04-25T03:24:10.236Z,83.42
2019-04-25T03:29:13.793Z,84.99
2019-04-25T03:34:20.980Z,85.19
2019-04-25T03:39:27.096Z,84.58
2019-04-25T03:44:33.745Z,84.01
2019-04-25T03:49:39.209Z,83.13
2019-04-25T03:54:45.521Z,84.58
2019-04-25T03:59:51.567Z,85.09
2019-04-25T04:04:56.874Z,83.91
2019-04-25T04:10:04.517Z,84.54
2019-04-25T04:15:10.419Z,84.05
2019-04-25T04:20:40.834Z,83.35
2019-04-25T04:25:46.583Z,84.43
2019-04-25T04:30:51.795Z,84.59
2019-04-25T04:35:57.107Z,84.33
2019-04-25T04:41:03.929Z,84.63
2019-04-25T04:46:10.195Z,84.05
2019-04-25T04:51:16.050Z,84.14
2019-04-25T04:56:25.464Z,84.73
2019-04-25T05:01:33.720Z,84.42
2019-04-25T05:06:56.549Z,84.00
2019-04-25T05:12:01.806Z,82.77
2019-04-25T05:17:07.439Z,83.03
2019-04-25T05:22:14.550Z,81.90
2019-04-25T05:27:32.230Z,81.81
2019-04-25T05:32:27.045Z,81.24
2019-04-25T05:37:33.513Z,81.11
2019-04-25T05:43:10.104Z,80.71
2019-04-25T05:48:16.279Z,79.64
2019-04-25T05:53:26.306Z,77.43
2019-04-25T05:58:33.621Z,76.68
2019-04-25T06:03:39.928Z,74.99
2019-04-25T06:08:54.468Z,74.92
2019-04-25T06:14:03.483Z,74.76
2019-04-25T06:19:20.023Z,74.48
2019-04-25T06:24:32.757Z,74.36
2019-04-25T06:29:38.563Z,74.05
2019-04-25T06:34:44.470Z,74.00
2019-04-25T06:39:50.041Z,71.21
2019-04-25T06:50:18.900Z,69.97
2019-04-25T06:55:25.984Z,68.74
2019-04-25T07:00:35.219Z,66.67
2019-04-25T07:05:40.573Z,66.97
2019-04-25T07:10:46.850Z,66.98
2019-04-25T07:15:53.424Z,66.20
2019-04-25T07:20:59.934Z,65.42
2019-04-25T07:26:15.305Z,64.94
2019-04-25T07:31:44.219Z,65.08
2019-04-25T07:36:49.599Z,63.54
2019-04-25T07:41:55.830Z,60.88
2019-04-25T07:47:01.058Z,61.40
2019-04-25T07:52:06.809Z,61.64
2019-04-25T07:57:13.565Z,60.38
2019-04-25T08:02:19.579Z,61.81
2019-04-25T08:07:24.867Z,61.99
2019-04-25T08:12:30.539Z,62.00
2019-04-25T08:17:54.080Z,61.76
2019-04-25T08:23:01.721Z,60.41
2019-04-25T08:28:07.377Z,60.25
2019-04-25T08:45:55.752Z,58.44
2019-04-25T08:51:08.318Z,59.81
2019-04-25T09:02:43.565Z,60.73
2019-04-25T09:07:48.810Z,61.66
2019-04-25T09:25:27.353Z,58.80
2019-04-25T09:30:34.926Z,59.50
2019-04-25T09:35:40.472Z,60.11
2019-04-25T09:40:46.687Z,59.45
2019-04-25T09:46:07.113Z,59.93
2019-04-25T09:51:23.125Z,59.41
2019-04-25T09:56:33.988Z,59.96
2019-04-25T10:01:40.182Z,57.21
2019-04-25T10:06:47.538Z,56.07
2019-04-25T10:11:54.676Z,56.46
2019-04-25T10:17:00.137Z,55.21
2019-04-25T10:22:05.584Z,56.34
2019-04-25T10:27:13.885Z,54.28
2019-04-25T10:32:19.188Z,52.76
2019-04-25T10:37:24.543Z,53.26
2019-04-25T10:42:30.285Z,50.38
2019-04-25T10:47:35.522Z,50.88
2019-04-25T10:52:41.841Z,49.72
2019-04-25T10:57:48.365Z,49.01
2019-04-25T11:02:56.690Z,47.81
2019-04-25T11:08:02.188Z,46.82
2019-04-25T11:13:07.650Z,46.64
2019-04-25T11:18:13.107Z,46.30
2019-04-25T11:23:20.394Z,45.24
2019-04-25T11:28:26.759Z,45.87
2019-04-25T11:33:33.477Z,45.01
2019-04-25T11:38:54.661Z,43.86
2019-04-25T11:44:00.479Z,43.82
2019-04-25T11:49:06.770Z,44.45
2019-04-25T11:54:13.930Z,41.16
2019-04-25T11:59:19.320Z,39.83
2019-04-25T12:04:26.182Z,38.66
2019-04-25T12:09:31.454Z,37.72
2019-04-25T12:14:36.800Z,36.41
2019-04-25T12:19:42.068Z,34.98
2019-04-25T12:24:47.928Z,35.65
2019-04-25T12:29:53.167Z,36.14
2019-04-25T12:34:59.431Z,36.60
2019-04-25T12:40:06.360Z,37.42
2019-04-25T12:45:21.567Z,36.27
2019-04-25T12:50:26.779Z,33.80
2019-04-25T12:55:32.006Z,34.13
2019-04-25T13:00:47.537Z,34.23
2019-04-25T13:05:44.866Z,32.93
2019-04-25T13:10:52.170Z,31.56
2019-04-25T13:15:57.852Z,30.85
2019-04-25T13:21:03.536Z,29.03
2019-04-25T13:26:09.747Z,29.52
2019-04-25T13:31:37.941Z,30.03
2019-04-25T13:36:44.291Z,31.77
2019-04-25T13:41:49.789Z,31.14
2019-04-25T13:46:55.463Z,29.79
2019-04-25T13:52:00.811Z,29.58
2019-04-25T13:57:06.287Z,28.68
2019-04-25T14:02:12.020Z,30.36
2019-04-25T14:07:17.426Z,30.56
2019-04-25T14:12:26.363Z,30.05
2019-04-25T14:17:55.094Z,27.23
2019-04-25T14:23:03.482Z,29.26
2019-04-25T14:28:10.530Z,28.85
2019-04-25T14:33:15.934Z,28.86
2019-04-25T14:38:22.695Z,28.69
2019-04-25T14:43:28.802Z,30.91
2019-04-25T14:48:34.094Z,32.36
2019-04-25T14:53:39.436Z,34.33
2019-04-25T14:58:46.505Z,35.82
2019-04-25T15:03:51.829Z,36.13
2019-04-25T15:08:57.062Z,36.60
2019-04-25T15:14:02.357Z,37.61
2019-04-25T15:19:07.753Z,37.90
2019-04-25T15:24:13.709Z,38.05
2019-04-25T15:29:19.511Z,38.68
2019-04-25T15:34:27.669Z,38.88
2019-04-25T15:39:55.690Z,39.46
2019-04-25T15:45:19.981Z,39.55
2019-04-25T15:50:27.781Z,40.32
2019-04-25T15:55:34.887Z,39.33
2019-04-25T16:00:40.470Z,39.38
2019-04-25T16:05:45.806Z,39.41
2019-04-25T16:10:51.857Z,40.33
2019-04-25T16:15:57.077Z,39.44
2019-04-25T16:21:02.827Z,40.01
2019-04-25T16:26:09.232Z,41.39
2019-04-25T16:31:17.825Z,40.99
2019-04-25T16:36:23.643Z,41.61
2019-04-25T16:41:29.207Z,41.42
2019-04-25T16:46:34.702Z,41.66
2019-04-25T16:51:40.544Z,41.69
2019-04-25T16:56:45.952Z,43.63
2019-04-25T17:01:51.993Z,44.24
2019-04-25T17:06:57.314Z,44.43
2019-04-25T17:12:05.340Z,45.39
2019-04-25T17:17:41.899Z,45.38
2019-04-25T17:22:48.037Z,46.43
2019-04-25T17:27:53.326Z,47.72
2019-04-25T17:33:14.407Z,46.56
2019-04-25T17:38:38.449Z,47.82
2019-04-25T17:43:44.621Z,48.63
2019-04-25T17:48:49.914Z,48.96
2019-04-25T17:53:55.229Z,49.61
2019-04-25T17:59:01.021Z,49.73
2019-04-25T18:04:08.031Z,50.18
2019-04-25T18:09:14.358Z,50.53
2019-04-25T18:14:20.323Z,50.90
2019-04-25T18:19:36.448Z,51.12
2019-04-25T18:25:03.730Z,51.69
2019-04-25T18:30:09.737Z,52.54
2019-04-25T18:35:23.104Z,52.76
2019-04-25T18:40:46.382Z,53.43
2019-04-25T18:45:56.240Z,54.33
2019-04-25T18:51:03.094Z,55.11
2019-04-25T18:56:15.886Z,55.00
2019-04-25T19:01:46.256Z,55.48
2019-04-25T19:06:58.119Z,55.92
2019-04-25T19:12:01.027Z,56.78
2019-04-25T19:17:08.128Z,57.28
2019-04-25T19:22:13.859Z,57.66
2019-04-25T19:27:24.170Z,58.48
2019-04-25T19:32:33.690Z,58.92
2019-04-25T19:37:40.548Z,58.69
2019-04-25T19:42:49.689Z,59.05
2019-04-25T19:47:55.164Z,58.50
2019-04-25T19:53:00.922Z,58.79
2019-04-25T19:58:06.273Z,59.40
2019-04-25T20:03:16.558Z,59.48
2019-04-25T20:08:36.628Z,59.70
2019-04-25T20:13:42.821Z,59.47
2019-04-25T20:18:49.786Z,59.58
2019-04-25T20:23:55.230Z,59.33
2019-04-25T20:29:00.677Z,59.52
2019-04-25T20:34:06.390Z,59.51
2019-04-25T20:39:12.085Z,59.85
2019-04-25T20:44:17.509Z,59.67
2019-04-25T20:49:22.974Z,60.16
2019-04-25T20:54:28.734Z,59.98
2019-04-25T20:59:34.029Z,60.01
2019-04-25T21:04:39.376Z,60.19
2019-04-25T21:09:46.526Z,60.54
2019-04-25T21:15:10.139Z,60.15
2019-04-25T21:20:16.116Z,59.84
2019-04-25T21:25:22.086Z,60.36
2019-04-25T21:30:27.513Z,59.93
2019-04-25T21:35:32.881Z,61.25
2019-04-25T21:41:07.860Z,60.82
2019-04-25T21:46:13.713Z,61.22
2019-04-25T21:51:32.708Z,61.16
2019-04-25T21:56:38.492Z,61.14
2019-04-25T22:01:44.795Z,61.21
2019-04-25T22:06:50.592Z,61.97
2019-04-25T22:11:57.324Z,62.67
2019-04-25T22:17:04.336Z,63.49
2019-04-25T22:22:10.074Z,63.10
2019-04-25T22:27:21.448Z,63.73
2019-04-25T22:32:49.673Z,63.63
2019-04-25T22:37:54.949Z,64.46
2019-04-25T22:43:01.656Z,64.66
2019-04-25T22:48:08.696Z,64.12
2019-04-25T22:53:21.839Z,64.06
2019-04-25T22:58:23.383Z,65.19
2019-04-25T23:03:37.285Z,64.65
2019-04-25T23:08:42.652Z,65.16
2019-04-25T23:13:48.450Z,65.51
2019-04-25T23:18:55.442Z,67.10
2019-04-25T23:24:00.751Z,67.51
2019-04-25T23:29:08.065Z,67.78
2019-04-25T23:34:13.779Z,68.35
2019-04-25T23:39:19.526Z,67.99
2019-04-25T23:44:24.997Z,67.37
2019-04-25T23:49:32.959Z,67.28
2019-04-25T23:54:38.765Z,67.49
2019-04-25T23:59:44.449Z,67.96
